Time;durP1;ratioP1;P1;durP2;ratioP2;P2;SDS_P1;SDS_P2;PMS_P1;PMS_P2;Temp;Humidity;BMP_temperature;BMP_pressure;BME280_temperature;BME280_humidity;BME280_pressure;Samples;Min_cycle;Max_cycle;Signal;HPM_P1;HPM_P2
2022/12/20 00:01:10;;;;;;;14.70;5.17;;;;;;;-5.79;100.00;102693.28;1745617;82;21022;-72
2022/12/20 00:03:37;;;;;;;20.17;6.93;;;;;;;-5.83;100.00;102694.59;1745282;82;20982;-73
2022/12/20 00:06:05;;;;;;;13.20;5.27;;;;;;;-5.87;100.00;102700.30;1745819;82;21058;-71
2022/12/20 00:08:33;;;;;;;16.57;5.60;;;;;;;-5.90;100.00;102691.08;1745982;82;21007;-72
2022/12/20 00:11:01;;;;;;;12.33;4.50;;;;;;;-5.94;100.00;102691.52;1745598;82;20998;-71
2022/12/20 00:13:28;;;;;;;11.83;5.50;;;;;;;-5.98;100.00;102689.80;1745928;82;21069;-72
2022/12/20 00:16:07;;;;;;;13.33;5.30;;;;;;;-6.07;100.00;102681.91;1745761;82;21003;-71
2022/12/20 00:18:34;;;;;;;14.07;5.53;;;;;;;-6.15;100.00;102681.89;1745674;82;20982;-71
2022/12/20 00:21:04;;;;;;;16.60;6.30;;;;;;;-6.24;100.00;102678.39;1745597;82;21584;-71
2022/12/20 00:23:32;;;;;;;12.33;5.10;;;;;;;-6.28;100.00;102676.61;1754131;81;21101;-71
2022/12/20 00:26:13;;;;;;;14.23;5.60;;;;;;;-6.30;100.00;102668.28;1783906;80;21532;-72
2022/12/20 00:28:40;;;;;;;14.83;5.70;;;;;;;-6.34;100.00;102665.63;1788402;80;21044;-71
2022/12/20 00:31:08;;;;;;;15.30;6.17;;;;;;;-6.40;100.00;102664.33;1787000;80;21495;-71
2022/12/20 00:33:36;;;;;;;14.10;5.33;;;;;;;-6.46;100.00;102665.20;1786937;80;20994;-71
2022/12/20 00:36:05;;;;;;;11.80;5.13;;;;;;;-6.51;100.00;102659.05;1787021;80;20998;-71
2022/12/20 00:38:33;;;;;;;18.03;6.70;;;;;;;-6.55;100.00;102660.80;1786630;80;21057;-71
2022/12/20 00:41:09;;;;;;;14.83;5.67;;;;;;;-6.60;100.00;102659.91;1787034;80;20995;-71
2022/12/20 00:43:36;;;;;;;13.50;5.50;;;;;;;-6.66;100.00;102661.20;1786761;80;21033;-71
2022/12/20 00:46:03;;;;;;;15.53;6.30;;;;;;;-6.72;100.00;102654.17;1786971;80;21073;-71
2022/12/20 00:48:32;;;;;;;14.97;5.70;;;;;;;-6.77;100.00;102653.28;1786639;80;21054;-71
2022/12/20 00:51:02;;;;;;;13.20;5.90;;;;;;;-6.80;100.00;102655.03;1786882;80;21042;-71
2022/12/20 00:53:29;;;;;;;14.60;6.17;;;;;;;-6.85;100.00;102652.81;1786619;80;21050;-71
2022/12/20 00:55:56;;;;;;;13.07;5.60;;;;;;;-6.90;100.00;102646.25;1786921;80;21520;-71
2022/12/20 00:58:24;;;;;;;12.50;5.53;;;;;;;-6.95;100.00;102645.36;1786980;80;21018;-72
2022/12/20 01:00:51;;;;;;;12.93;5.83;;;;;;;-6.99;100.00;102639.62;1786729;80;21057;-71
2022/12/20 01:03:18;;;;;;;18.67;6.77;;;;;;;-7.00;100.00;102632.63;1786993;80;21010;-71
2022/12/20 01:05:59;;;;;;;17.70;6.60;;;;;;;-7.02;100.00;102641.81;1786706;80;21022;-71
2022/12/20 01:08:28;;;;;;;15.33;6.63;;;;;;;-7.03;100.00;102649.70;1786911;80;21484;-71
2022/12/20 01:11:10;;;;;;;17.97;6.37;;;;;;;-7.02;100.00;102647.08;1786712;80;21003;-70
2022/12/20 01:13:41;;;;;;;16.23;6.77;;;;;;;-6.99;100.00;102640.94;1786925;80;21010;-70
2022/12/20 01:16:18;;;;;;;18.03;7.00;;;;;;;-7.01;100.00;102651.89;1786954;80;21453;-70
2022/12/20 01:18:45;;;;;;;17.67;6.77;;;;;;;-7.03;100.00;102646.63;1787079;80;21002;-70
2022/12/20 01:21:13;;;;;;;16.93;7.50;;;;;;;-7.06;100.00;102640.93;1786706;80;21014;-70
2022/12/20 01:23:41;;;;;;;18.67;7.17;;;;;;;-7.08;100.00;102641.37;1786948;80;21472;-71
2022/12/20 01:26:11;;;;;;;23.27;9.50;;;;;;;-7.12;100.00;102641.34;1780710;80;21477;-70
2022/12/20 01:28:40;;;;;;;28.27;11.17;;;;;;;-7.14;100.00;102637.83;1779128;81;21030;-71
2022/12/20 01:31:09;;;;;;;29.70;11.60;;;;;;;-7.14;100.00;102634.75;1779376;81;21530;-70
2022/12/20 01:33:37;;;;;;;23.03;8.53;;;;;;;-7.13;100.00;102630.39;1779251;81;20990;-71
2022/12/20 01:36:07;;;;;;;25.00;9.70;;;;;;;-7.09;100.00;102630.84;1779063;81;21030;-71
2022/12/20 01:38:35;;;;;;;20.93;8.17;;;;;;;-7.06;100.00;102637.43;1779250;81;20958;-71
2022/12/20 01:41:02;;;;;;;22.97;8.03;;;;;;;-7.04;100.00;102639.63;1778948;81;21085;-71
2022/12/20 01:44:00;;;;;;;21.93;7.57;;;;;;;-7.03;100.00;102634.78;1779132;81;21034;-71
2022/12/20 01:46:30;;;;;;;21.03;8.00;;;;;;;-6.97;100.00;102632.64;1779196;81;21488;-70
2022/12/20 01:49:11;;;;;;;18.53;7.90;;;;;;;-6.95;100.00;102628.25;1779197;81;21033;-70
2022/12/20 01:51:44;;;;;;;22.33;8.23;;;;;;;-6.98;100.00;102614.64;1793641;80;21073;-71
2022/12/20 01:54:34;;;;;;;19.53;7.73;;;;;;;-7.07;100.00;102614.17;1793972;79;21502;-70
2022/12/20 01:57:06;;;;;;;17.87;7.20;;;;;;;-7.13;100.00;102610.23;1793426;80;21069;-70
2022/12/20 01:59:36;;;;;;;22.03;7.97;;;;;;;-7.17;100.00;102614.14;1793781;80;21100;-70
2022/12/20 02:02:06;;;;;;;19.97;7.70;;;;;;;-7.21;100.00;102608.44;1793931;79;21455;-70
2022/12/20 02:04:33;;;;;;;14.83;6.00;;;;;;;-7.27;100.00;102599.66;1794025;79;20998;-70
2022/12/20 02:07:00;;;;;;;16.30;6.57;;;;;;;-7.31;100.00;102600.53;1793710;80;21022;-70
2022/12/20 02:09:27;;;;;;;17.17;6.43;;;;;;;-7.35;100.00;102597.87;1793665;79;21481;-70
2022/12/20 02:12:11;;;;;;;17.30;6.63;;;;;;;-7.38;100.00;102601.80;1793883;80;21017;-70
2022/12/20 02:15:17;;;;;;;21.57;7.77;;;;;;;-7.40;100.00;102597.87;1793973;79;21034;-70
2022/12/20 02:18:14;;;;;;;19.53;7.80;;;;;;;-7.40;100.00;102602.22;1793914;80;21025;-71
2022/12/20 02:21:04;;;;;;;19.57;6.80;;;;;;;-7.42;100.00;102603.53;1793835;79;21469;-70
2022/12/20 02:24:13;;;;;;;23.40;8.87;;;;;;;-7.40;100.00;102601.81;1793779;79;21073;-71
2022/12/20 02:27:05;;;;;;;22.47;9.07;;;;;;;-7.38;100.00;102605.73;1813157;79;21552;-71
2022/12/20 02:30:07;;;;;;;22.57;7.83;;;;;;;-7.38;100.00;102609.67;1815214;79;21081;-72
2022/12/20 02:32:51;;;;;;;22.33;9.03;;;;;;;-7.39;100.00;102605.31;1814734;79;21006;-70
2022/12/20 02:35:23;;;;;;;27.03;10.30;;;;;;;-7.41;100.00;102605.75;1815417;79;21045;-70
2022/12/20 02:37:53;;;;;;;28.70;10.95;;;;;;;-7.45;100.00;102597.84;1815356;79;20987;-70
2022/12/20 02:40:24;;;;;;;27.97;11.73;;;;;;;-7.45;100.00;102592.58;1815363;79;20993;-70
2022/12/20 02:42:55;;;;;;;29.10;11.70;;;;;;;-7.46;100.00;102599.14;1815307;79;20962;-70
2022/12/20 02:45:25;;;;;;;26.13;11.13;;;;;;;-7.51;100.00;102603.49;1815299;79;21002;-71
2022/12/20 02:48:03;;;;;;;26.93;11.23;;;;;;;-7.56;100.00;102600.86;1815391;79;21022;-70
2022/12/20 02:50:43;;;;;;;21.73;9.37;;;;;;;-7.58;100.00;102600.40;1815434;79;21010;-70
2022/12/20 02:53:10;;;;;;;18.93;8.83;;;;;;;-7.60;100.00;102603.45;1815092;79;20999;-71
2022/12/20 02:55:55;;;;;;;24.13;9.10;;;;;;;-7.61;100.00;102608.25;1815282;79;21026;-72
2022/12/20 02:58:46;;;;;;;21.50;9.07;;;;;;;-7.61;100.00;102618.77;1803081;79;21065;-70
2022/12/20 03:01:21;;;;;;;24.27;9.20;;;;;;;-7.64;100.00;102619.20;1815490;79;21022;-70
2022/12/20 03:03:48;;;;;;;31.33;10.67;;;;;;;-7.68;100.00;102618.75;1815508;78;21468;-70
2022/12/20 03:06:14;;;;;;;23.23;9.47;;;;;;;-7.73;100.00;102621.78;1815313;79;21042;-70
2022/12/20 03:08:41;;;;;;;20.93;8.67;;;;;;;-7.75;100.00;102634.03;1784110;79;21034;-70
2022/12/20 03:11:09;;;;;;;26.10;9.47;;;;;;;-7.77;100.00;102635.78;1815132;79;20999;-70
2022/12/20 03:13:36;;;;;;;24.53;9.90;;;;;;;-7.75;100.00;102639.29;1815413;79;21393;-70
2022/12/20 03:16:06;;;;;;;23.83;9.27;;;;;;;-7.71;100.00;102634.48;1814641;79;21019;-72
2022/12/20 03:18:33;;;;;;;22.77;9.57;;;;;;;-7.71;100.00;102631.86;1815399;79;20983;-70
2022/12/20 03:21:00;;;;;;;21.70;8.93;;;;;;;-7.73;100.00;102642.80;1815169;79;21022;-71
2022/12/20 03:23:27;;;;;;;25.37;10.93;;;;;;;-7.74;100.00;102634.46;1815341;79;20986;-71
2022/12/20 03:25:54;;;;;;;33.87;15.73;;;;;;;-7.73;100.00;102636.23;1817586;79;20995;-70
2022/12/20 03:28:23;;;;;;;33.07;14.80;;;;;;;-7.74;100.00;102628.34;1819031;79;21049;-69
2022/12/20 03:30:50;;;;;;;30.80;15.00;;;;;;;-7.75;100.00;102621.34;1820783;79;21018;-70
2022/12/20 03:33:17;;;;;;;32.67;15.50;;;;;;;-7.75;100.00;102622.66;1821025;79;21033;-70
2022/12/20 03:35:47;;;;;;;30.47;14.60;;;;;;;-7.76;100.00;102621.75;1821082;79;21046;-70
2022/12/20 03:38:16;;;;;;;31.23;14.10;;;;;;;-7.78;100.00;102609.05;1821236;79;20955;-70
2022/12/20 03:40:42;;;;;;;28.73;12.53;;;;;;;-7.80;100.00;102606.86;1821084;79;21038;-71
2022/12/20 03:43:11;;;;;;;31.10;13.67;;;;;;;-7.83;100.00;102609.02;1821294;78;21041;-70
2022/12/20 03:45:38;;;;;;;27.53;12.13;;;;;;;-7.82;100.00;102617.34;1820907;78;21468;-71
2022/12/20 03:48:05;;;;;;;28.27;13.00;;;;;;;-7.83;100.00;102614.70;1821037;79;21034;-70
2022/12/20 03:50:33;;;;;;;33.00;14.13;;;;;;;-7.84;100.00;102619.54;1821094;79;21500;-71
2022/12/20 03:53:00;;;;;;;30.30;12.80;;;;;;;-7.85;100.00;102621.70;1820807;79;20990;-71
2022/12/20 03:55:27;;;;;;;32.73;14.13;;;;;;;-7.87;100.00;102617.75;1820885;79;21069;-70
2022/12/20 03:57:55;;;;;;;22.03;10.27;;;;;;;-7.90;100.00;102618.17;1820903;79;21011;-70
2022/12/20 04:00:23;;;;;;;26.43;10.93;;;;;;;-7.90;100.00;102618.17;1820395;79;21018;-70
2022/12/20 04:02:51;;;;;;;32.27;11.30;;;;;;;-7.88;100.00;102615.11;1820953;79;21081;-71
2022/12/20 04:05:18;;;;;;;37.47;14.13;;;;;;;-7.89;100.00;102621.25;1821230;79;21467;-70
2022/12/20 04:07:45;;;;;;;37.80;13.13;;;;;;;-7.88;100.00;102624.30;1820765;79;20994;-70
2022/12/20 04:10:12;;;;;;;23.33;9.63;;;;;;;-7.88;100.00;102620.36;1821076;79;21006;-70
2022/12/20 04:12:39;;;;;;;20.77;9.17;;;;;;;-7.91;100.00;102616.43;1820879;79;21026;-70
2022/12/20 04:15:09;;;;;;;26.40;9.27;;;;;;;-7.93;100.00;102614.20;1820940;79;21018;-70
2022/12/20 04:17:36;;;;;;;22.13;8.90;;;;;;;-7.94;100.00;102616.41;1821226;79;21444;-71
2022/12/20 04:20:17;;;;;;;21.00;8.50;;;;;;;-7.94;100.00;102620.34;1820854;79;21460;-70
2022/12/20 04:22:34;;;;;;;15.70;6.83;;;;;;;-7.95;100.00;102615.53;1818870;79;21456;-70
2022/12/20 04:25:04;;;;;;;16.70;6.90;;;;;;;-7.95;100.00;102612.91;1820791;79;21022;-70
2022/12/20 04:27:33;;;;;;;16.57;7.33;;;;;;;-7.95;100.00;102612.91;1820604;79;20999;-71
2022/12/20 04:30:00;;;;;;;19.37;8.17;;;;;;;-7.95;100.00;102614.62;1820930;79;21571;-71
2022/12/20 04:32:27;;;;;;;18.90;7.17;;;;;;;-7.96;100.00;102612.45;1820772;79;21065;-70
2022/12/20 04:34:54;;;;;;;18.73;7.90;;;;;;;-7.98;100.00;102612.87;1821211;79;21069;-70
2022/12/20 04:37:21;;;;;;;20.00;8.13;;;;;;;-7.99;100.00;102614.17;1820857;79;21072;-70
2022/12/20 04:39:53;;;;;;;18.07;6.93;;;;;;;-8.02;100.00;102610.66;1821126;79;21046;-70
2022/12/20 04:42:23;;;;;;;21.23;8.10;;;;;;;-8.04;100.00;102609.78;1820879;78;21037;-70
2022/12/20 04:44:50;;;;;;;19.43;7.73;;;;;;;-8.04;100.00;102620.70;1821153;79;20995;-71
2022/12/20 04:47:19;;;;;;;17.23;6.97;;;;;;;-8.06;100.00;102620.68;1820237;79;21026;-70
2022/12/20 04:49:45;;;;;;;19.43;7.87;;;;;;;-8.04;100.00;102617.66;1821056;79;21061;-70
2022/12/20 04:54:58;;;;;;;33.63;13.23;;;;;;;-8.05;100.00;102630.33;1821089;79;21037;-71
2022/12/20 04:57:26;;;;;;;37.70;14.73;;;;;;;-8.07;100.00;102633.83;1820626;78;21018;-70
2022/12/20 04:59:53;;;;;;;43.93;17.30;;;;;;;-8.11;100.00;102628.09;1821233;79;21457;-70
2022/12/20 05:02:20;;;;;;;84.47;32.37;;;;;;;-8.11;100.00;102631.61;1821119;79;20994;-69
2022/12/20 05:04:49;;;;;;;90.47;34.10;;;;;;;-8.11;100.00;102632.02;1819857;79;20986;-71
2022/12/20 05:07:16;;;;;;;59.47;25.70;;;;;;;-8.12;100.00;102622.41;1821150;79;21010;-70
2022/12/20 05:09:44;;;;;;;45.40;21.47;;;;;;;-8.16;100.00;102611.01;1820655;79;21033;-69
2022/12/20 05:12:11;;;;;;;46.83;19.07;;;;;;;-8.15;100.00;102615.38;1821063;79;21041;-70
2022/12/20 05:14:38;;;;;;;38.23;16.90;;;;;;;-8.13;100.00;102620.64;1821001;78;21038;-71
2022/12/20 05:17:08;;;;;;;26.33;11.47;;;;;;;-8.14;100.00;102614.92;1821286;79;21433;-70
2022/12/20 05:19:35;;;;;;;26.10;10.77;;;;;;;-8.12;100.00;102611.91;1820700;79;21448;-70
2022/12/20 05:27:36;;;;;;;25.47;9.07;;;;;;;-8.02;100.00;102617.64;1815318;79;21030;-70
2022/12/20 05:30:05;;;;;;;19.93;9.47;;;;;;;-8.01;100.00;102616.34;1815083;79;21057;-71
2022/12/20 05:32:33;;;;;;;21.27;9.67;;;;;;;-8.02;100.00;102629.05;1815202;79;21014;-71
2022/12/20 05:35:00;;;;;;;20.87;8.93;;;;;;;-8.06;100.00;102624.62;1815164;79;21026;-70
2022/12/20 05:37:27;;;;;;;21.70;9.47;;;;;;;-8.10;100.00;102616.28;1815234;79;21022;-71
2022/12/20 05:39:54;;;;;;;18.60;9.37;;;;;;;-8.11;100.00;102629.40;1815058;79;21066;-71
2022/12/20 05:42:22;;;;;;;25.77;10.67;;;;;;;-8.15;100.00;102623.25;1815295;79;21030;-70
2022/12/20 05:44:51;;;;;;;28.00;11.33;;;;;;;-8.21;100.00;102613.58;1815127;79;21345;-70
2022/12/20 05:47:19;;;;;;;26.90;12.07;;;;;;;-8.22;100.00;102623.63;1815213;79;21061;-70
2022/12/20 05:49:46;;;;;;;38.30;15.90;;;;;;;-8.23;100.00;102620.58;1815217;79;20999;-71
2022/12/20 05:52:13;;;;;;;26.93;12.73;;;;;;;-8.21;100.00;102624.53;1815209;79;20994;-71
2022/12/20 05:54:40;;;;;;;30.00;12.87;;;;;;;-8.16;100.00;102629.80;1814914;79;21042;-70
2022/12/20 05:57:13;;;;;;;35.80;14.53;;;;;;;-8.14;100.00;102633.30;1815207;78;21045;-71
2022/12/20 05:59:41;;;;;;;29.33;12.23;;;;;;;-8.15;100.00;102628.50;1815046;79;21089;-70
2022/12/20 06:02:19;;;;;;;24.67;10.17;;;;;;;-8.19;100.00;102629.35;1815339;78;21017;-70
2022/12/20 06:04:48;;;;;;;26.20;13.23;;;;;;;-8.36;100.00;102632.27;1815089;79;21030;-71
2022/12/20 06:07:18;;;;;;;25.40;11.13;;;;;;;-8.56;100.00;102622.50;1763147;79;20959;-71
2022/12/20 06:09:47;;;;;;;28.33;12.73;;;;;;;-8.65;100.00;102623.30;1759129;81;21028;-70
2022/12/20 06:12:16;;;;;;;34.30;15.67;;;;;;;-8.74;100.00;102631.09;1765102;80;20968;-70
2022/12/20 06:14:43;;;;;;;24.63;11.30;;;;;;;-8.81;100.00;102624.02;1742339;81;21000;-70
2022/12/20 06:17:11;;;;;;;24.17;11.10;;;;;;;-8.86;100.00;102615.22;1768194;81;21545;-71
2022/12/20 06:19:41;;;;;;;24.33;10.23;;;;;;;-8.87;100.00;102607.80;1764846;81;21024;-71
2022/12/20 06:22:20;;;;;;;23.63;10.13;;;;;;;-8.80;100.00;102609.61;1760896;81;21482;-71
2022/12/20 06:24:52;;;;;;;23.70;9.73;;;;;;;-8.69;100.00;102608.81;1757174;81;21038;-69
2022/12/20 06:27:21;;;;;;;26.03;10.67;;;;;;;-8.60;100.00;102607.17;1784986;80;21037;-71
2022/12/20 06:29:53;;;;;;;28.03;12.07;;;;;;;-8.54;100.00;102610.72;1780901;80;21024;-70
2022/12/20 06:32:20;;;;;;;32.97;13.93;;;;;;;-8.49;100.00;102602.45;1777828;80;21470;-70
2022/12/20 06:34:50;;;;;;;29.50;14.23;;;;;;;-8.44;100.00;102600.75;1782162;80;20972;-70
2022/12/20 06:37:17;;;;;;;32.87;14.10;;;;;;;-8.42;100.00;102596.39;1753413;80;21008;-70
2022/12/20 06:39:43;;;;;;;47.07;21.63;;;;;;;-8.40;100.00;102590.24;1773524;80;21080;-70
2022/12/20 06:42:10;;;;;;;44.43;20.10;;;;;;;-8.38;100.00;102587.63;1772821;80;21447;-70
2022/12/20 06:44:39;;;;;;;32.97;13.40;;;;;;;-8.34;100.00;102589.84;1779464;80;21016;-71
2022/12/20 06:47:05;;;;;;;32.43;13.40;;;;;;;-8.25;100.00;102597.78;1773679;80;21042;-70
2022/12/20 06:49:33;;;;;;;23.77;11.17;;;;;;;-8.23;100.00;102598.70;1773512;80;20988;-70
2022/12/20 06:52:03;;;;;;;26.00;11.23;;;;;;;-8.14;100.00;102597.45;1782478;80;21037;-71
2022/12/20 06:54:32;;;;;;;30.53;11.13;;;;;;;-8.06;100.00;102600.98;1784359;80;21042;-72
2022/12/20 06:56:59;;;;;;;35.57;14.57;;;;;;;-8.04;100.00;102597.06;1786434;80;21041;-70
2022/12/20 06:59:26;;;;;;;28.77;10.97;;;;;;;-8.07;100.00;102599.25;1786382;80;21006;-71
2022/12/20 07:01:53;;;;;;;22.17;9.50;;;;;;;-8.03;100.00;102595.77;1786429;80;21054;-70
2022/12/20 07:04:21;;;;;;;26.80;10.47;;;;;;;-8.00;100.00;102597.55;1773539;80;21466;-71
2022/12/20 07:06:48;;;;;;;28.60;12.70;;;;;;;-7.94;100.00;102595.39;1775823;79;20996;-71
2022/12/20 07:09:16;;;;;;;26.03;10.63;;;;;;;-7.84;100.00;102605.09;1739560;82;21479;-70
2022/12/20 07:11:42;;;;;;;18.57;7.97;;;;;;;-7.79;100.00;102600.75;1731083;82;21059;-70
2022/12/20 07:14:09;;;;;;;19.00;8.40;;;;;;;-7.73;100.00;102605.15;1747042;82;21010;-71
2022/12/20 07:16:36;;;;;;;22.17;7.93;;;;;;;-7.68;100.00;102596.42;1719085;82;21031;-70
2022/12/20 07:19:04;;;;;;;23.10;8.93;;;;;;;-7.61;100.00;102598.65;1711862;82;21516;-65
2022/12/20 07:21:32;;;;;;;20.60;7.83;;;;;;;-7.62;100.00;102594.69;1744202;82;21033;-65
2022/12/20 07:23:58;;;;;;;17.70;7.50;;;;;;;-7.60;100.00;102589.00;1706052;83;21047;-65
2022/12/20 07:26:29;;;;;;;18.77;7.50;;;;;;;-7.57;100.00;102585.09;1737998;80;21043;-65
2022/12/20 07:28:56;;;;;;;21.37;7.77;;;;;;;-7.59;100.00;102581.58;1766886;81;20971;-64
2022/12/20 07:31:24;;;;;;;18.07;7.53;;;;;;;-7.60;100.00;102583.75;1774075;81;21022;-65
2022/12/20 07:33:51;;;;;;;16.83;6.60;;;;;;;-7.54;100.00;102583.34;1754643;81;21004;-65
2022/12/20 07:36:18;;;;;;;19.73;8.20;;;;;;;-7.45;100.00;102589.09;1752172;81;21028;-66
2022/12/20 07:38:47;;;;;;;32.50;11.67;;;;;;;-7.40;100.00;102586.04;1752393;81;21034;-65
2022/12/20 07:41:17;;;;;;;25.53;10.27;;;;;;;-7.36;100.00;102584.30;1753530;81;21447;-64
2022/12/20 07:43:46;;;;;;;22.67;8.73;;;;;;;-7.29;100.00;102584.31;1753736;81;20966;-64
2022/12/20 07:46:14;;;;;;;20.77;7.97;;;;;;;-7.20;100.00;102579.53;1754756;81;21077;-65
2022/12/20 07:48:41;;;;;;;18.57;8.93;;;;;;;-7.12;100.00;102581.75;1752024;81;21487;-66
2022/12/20 07:51:18;;;;;;;22.37;9.03;;;;;;;-7.04;100.00;102574.31;1754647;81;21492;-65
2022/12/20 07:53:50;;;;;;;22.97;9.17;;;;;;;-7.04;100.00;102571.24;1736757;81;20995;-65
2022/12/20 07:56:18;;;;;;;27.10;10.48;;;;;;;-7.07;100.00;102569.91;1754214;81;21479;-66
2022/12/20 07:58:45;;;;;;;22.13;8.90;;;;;;;-7.05;100.00;102565.52;1751576;81;21057;-65
2022/12/20 08:01:49;;;;;;;20.40;9.17;;;;;;;-7.02;100.00;102558.09;1750752;81;21039;-66
2022/12/20 08:04:20;;;;;;;16.67;6.90;;;;;;;-6.97;100.00;102556.36;1741196;82;21034;-65
2022/12/20 08:06:47;;;;;;;18.63;7.57;;;;;;;-6.92;100.00;102559.88;1741525;82;20987;-64
2022/12/20 08:09:14;;;;;;;18.13;8.07;;;;;;;-6.87;100.00;102552.42;1740960;82;21508;-65
2022/12/20 08:11:44;;;;;;;18.30;7.23;;;;;;;-6.85;100.00;102551.53;1741162;82;21082;-65
2022/12/20 08:14:10;;;;;;;17.63;6.90;;;;;;;-6.81;100.00;102550.67;1741137;82;21039;-70
2022/12/20 08:16:38;;;;;;;17.97;7.83;;;;;;;-6.78;100.00;102555.92;1741263;82;21070;-69
2022/12/20 08:19:04;;;;;;;16.70;7.10;;;;;;;-6.84;100.00;102538.83;1741310;82;21516;-70
2022/12/20 08:21:31;;;;;;;19.20;8.83;;;;;;;-6.83;100.00;102538.83;1741183;82;21070;-70
2022/12/20 08:23:58;;;;;;;19.57;8.23;;;;;;;-6.74;100.00;102539.28;1746829;82;21018;-69
2022/12/20 08:26:26;;;;;;;18.43;7.57;;;;;;;-6.73;100.00;102536.66;1736560;82;21035;-70
2022/12/20 08:28:54;;;;;;;18.20;7.40;;;;;;;-6.70;100.00;102530.50;1772307;81;21085;-70
2022/12/20 08:31:23;;;;;;;18.40;7.03;;;;;;;-6.74;100.00;102544.09;1781887;79;21055;-66
2022/12/20 08:33:54;;;;;;;15.77;6.93;;;;;;;-6.79;100.00;102531.81;1783236;79;21414;-66
2022/12/20 08:36:22;;;;;;;20.57;8.50;;;;;;;-6.81;100.00;102542.78;1783186;79;21030;-65
2022/12/20 08:38:51;;;;;;;22.13;8.40;;;;;;;-6.88;100.00;102528.29;1783232;79;21046;-65
2022/12/20 08:41:21;;;;;;;16.23;6.83;;;;;;;-6.81;100.00;102524.37;1783114;79;20984;-65
2022/12/20 08:43:52;;;;;;;19.37;8.27;;;;;;;-6.73;100.00;102526.13;1783160;79;21438;-68
2022/12/20 08:46:29;;;;;;;21.57;9.57;;;;;;;-6.67;100.00;102517.34;1782989;80;20964;-69
2022/12/20 08:48:57;;;;;;;18.17;8.07;;;;;;;-6.56;100.00;102519.52;1783056;79;21469;-69
2022/12/20 08:51:25;;;;;;;18.80;7.87;;;;;;;-6.41;100.00;102523.92;1782973;80;21019;-70
2022/12/20 08:53:52;;;;;;;18.00;7.50;;;;;;;-6.34;100.00;102526.98;1783311;79;21504;-70
2022/12/20 08:56:20;;;;;;;16.03;7.17;;;;;;;-6.37;100.00;102520.39;1772376;80;21481;-71
2022/12/20 08:58:47;;;;;;;15.73;6.60;;;;;;;-6.36;100.00;102529.16;1783276;79;21054;-71
2022/12/20 09:01:17;;;;;;;18.73;7.33;;;;;;;-6.35;100.00;102516.45;1783636;80;21030;-70
2022/12/20 09:03:45;;;;;;;15.47;6.60;;;;;;;-6.29;100.00;102509.84;1804183;78;20982;-70
2022/12/20 09:06:21;;;;;;;20.03;7.67;;;;;;;-6.24;100.00;102501.94;1787687;79;21022;-71
2022/12/20 09:08:48;;;;;;;18.60;7.93;;;;;;;-6.23;100.00;102507.21;1776487;81;21497;-71
2022/12/20 09:11:21;;;;;;;14.60;6.43;;;;;;;-6.12;100.00;102500.14;1776187;81;21050;-69
2022/12/20 09:13:53;;;;;;;17.73;7.00;;;;;;;-6.04;100.00;102500.11;1776455;81;21484;-70
2022/12/20 09:16:26;;;;;;;16.93;6.97;;;;;;;-6.02;100.00;102486.52;1776227;81;21543;-70
2022/12/20 09:18:55;;;;;;;18.83;6.57;;;;;;;-5.97;100.00;102484.72;1776256;81;21057;-72
2022/12/20 09:21:22;;;;;;;19.57;8.47;;;;;;;-5.99;100.00;102494.39;1772482;81;21006;-70
2022/12/20 09:23:51;;;;;;;19.53;7.60;;;;;;;-5.94;100.00;102483.81;1762442;81;21500;-69
2022/12/20 09:26:18;;;;;;;21.03;8.77;;;;;;;-5.82;100.00;102482.45;1776048;81;21025;-72
2022/12/20 09:28:46;;;;;;;20.33;8.27;;;;;;;-5.70;100.00;102468.35;1776113;80;21078;-74
2022/12/20 09:31:17;;;;;;;18.03;7.53;;;;;;;-5.60;100.00;102463.89;1776175;81;21526;-72
2022/12/20 09:33:44;;;;;;;20.50;7.93;;;;;;;-5.53;100.00;102461.66;1759387;81;20984;-70
2022/12/20 09:36:17;;;;;;;19.87;8.23;;;;;;;-5.51;100.00;102454.61;1745757;81;21025;-72
2022/12/20 09:38:44;;;;;;;19.47;8.30;;;;;;;-5.44;100.00;102458.09;1745680;82;21545;-71
2022/12/20 09:41:36;;;;;;;22.10;9.93;;;;;;;-5.41;100.00;102457.63;1768950;79;21046;-70
2022/12/20 09:44:17;;;;;;;21.97;8.43;;;;;;;-5.40;100.00;102451.90;1730373;82;20971;-72
2022/12/20 09:46:44;;;;;;;18.33;7.93;;;;;;;-5.39;100.00;102443.98;1730282;82;21027;-72
2022/12/20 09:49:15;;;;;;;19.27;8.40;;;;;;;-5.36;100.00;102436.06;1745698;82;21073;-70
2022/12/20 09:52:11;;;;;;;18.53;7.70;;;;;;;-5.30;100.00;102426.36;1745427;82;21077;-71
2022/12/20 09:55:16;;;;;;;19.77;8.90;;;;;;;-5.29;100.00;102418.86;1671005;84;21080;-72
2022/12/20 09:58:26;;;;;;;16.60;6.93;;;;;;;-5.35;100.00;102418.47;1670769;86;21093;-72
2022/12/20 10:01:20;;;;;;;15.37;6.57;;;;;;;-5.47;100.00;102412.86;1729014;81;21023;-72
2022/12/20 10:03:48;;;;;;;13.03;5.97;;;;;;;-5.41;100.00;102400.06;1773914;80;21035;-66
2022/12/20 10:06:53;;;;;;;14.03;6.30;;;;;;;-5.39;100.00;102405.75;1774391;81;21041;-67
2022/12/20 10:09:34;;;;;;;15.87;6.67;;;;;;;-5.35;100.00;102402.64;1776130;81;21035;-67
2022/12/20 10:12:23;;;;;;;16.27;6.27;;;;;;;-5.19;100.00;102388.89;1783741;80;21064;-64
2022/12/20 10:19:39;;;;;;;16.67;6.43;;;;;;;-4.96;100.00;102387.38;1782973;80;21527;-66
2022/12/20 10:42:38;;;;;;;19.43;9.10;;;;;;;-3.85;100.00;102283.87;1795963;79;22759;-65
2022/12/20 10:45:31;;;;;;;20.60;8.10;;;;;;;-3.67;100.00;102330.30;1770081;80;21022;-71
2022/12/20 10:48:32;;;;;;;17.57;7.90;;;;;;;-3.45;100.00;102327.34;1740443;81;21037;-73
2022/12/20 10:51:03;;;;;;;19.57;7.72;;;;;;;-3.43;100.00;102313.64;1769105;80;21033;-75
2022/12/20 10:53:32;;;;;;;18.15;7.50;;;;;;;-3.33;100.00;102307.72;1763920;81;21088;-73
2022/12/20 10:56:22;;;;;;;16.50;7.07;;;;;;;-3.25;100.00;102300.08;1777122;81;21035;-74
2022/12/20 10:59:02;;;;;;;24.17;11.13;;;;;;;-3.16;100.00;102299.05;1776074;81;21066;-74
2022/12/20 11:01:38;;;;;;;19.77;8.10;;;;;;;-3.11;100.00;102283.09;1763769;80;21051;-74
2022/12/20 11:04:24;;;;;;;20.20;8.53;;;;;;;-3.07;100.00;102276.83;1741446;81;21498;-74
2022/12/20 11:07:24;;;;;;;20.43;8.30;;;;;;;-3.08;100.00;102262.73;1769215;80;21073;-75
2022/12/20 11:10:00;;;;;;;20.60;7.80;;;;;;;-3.04;100.00;102261.36;1772283;80;20993;-73
2022/12/20 11:12:27;;;;;;;17.60;8.05;;;;;;;-3.03;100.00;102246.74;1767195;81;21021;-75
2022/12/20 11:15:19;;;;;;;14.77;6.80;;;;;;;-3.18;100.00;102245.73;1764480;81;21033;-74
2022/12/20 11:17:51;;;;;;;17.10;8.13;;;;;;;-3.20;100.00;102240.47;1769142;81;21134;-74
2022/12/20 11:20:44;;;;;;;15.60;6.37;;;;;;;-3.16;100.00;102232.02;1769402;81;21041;-74
2022/12/20 11:23:47;;;;;;;17.57;7.53;;;;;;;-3.13;100.00;102231.97;1766848;81;21439;-75
2022/12/20 11:26:50;;;;;;;18.10;7.57;;;;;;;-3.16;100.00;102235.98;1767789;81;21025;-73
2022/12/20 11:29:42;;;;;;;21.87;9.60;;;;;;;-3.19;100.00;102234.25;1771496;80;21006;-74
2022/12/20 11:32:35;;;;;;;15.83;8.13;;;;;;;-3.15;100.00;102220.52;1768133;81;21467;-75
2022/12/20 11:35:24;;;;;;;17.15;7.62;;;;;;;-3.19;100.00;102213.09;1770692;80;20994;-73
2022/12/20 11:38:29;;;;;;;21.40;8.60;;;;;;;-3.18;100.00;102206.05;1780024;80;21488;-74
2022/12/20 11:41:22;;;;;;;18.93;8.00;;;;;;;-3.14;100.00;102195.80;1784578;79;21034;-75
2022/12/20 11:44:34;;;;;;;24.37;11.78;;;;;;;-3.14;100.00;102179.47;1793855;80;21017;-74
2022/12/20 11:47:54;;;;;;;26.43;14.30;;;;;;;-3.16;100.00;102174.66;1792572;80;21540;-75
2022/12/20 11:50:50;;;;;;;29.70;14.33;;;;;;;-3.15;100.00;102180.39;1792358;80;21056;-74
2022/12/20 11:53:33;;;;;;;31.43;17.70;;;;;;;-3.12;100.00;102173.69;1762253;81;21061;-75
2022/12/20 11:56:03;;;;;;;;;;;;;;;-3.14;100.00;102172.85;1727979;83;21005;-74
2022/12/20 11:59:03;;;;;;;21.80;10.13;;;;;;;-3.20;100.00;102174.31;1730715;81;20180;-74
2022/12/20 12:01:39;;;;;;;19.60;8.50;;;;;;;-3.21;100.00;102173.02;1739671;82;20982;-73
2022/12/20 12:04:21;;;;;;;24.90;9.30;;;;;;;-3.15;100.00;102168.48;1709280;84;21082;-73
2022/12/20 12:07:00;;;;;;;19.40;8.90;;;;;;;-3.11;100.00;102165.31;1699450;84;21471;-74